createdAt,value
2019-05-23T00:02:47.407Z,11.00
2019-05-23T00:05:49.673Z,9.10
2019-05-23T00:08:21.582Z,11.80
2019-05-23T00:10:56.577Z,10.75
2019-05-23T00:16:12.169Z,11.53
2019-05-23T00:18:42.140Z,10.08
2019-05-23T00:21:11.540Z,10.88
2019-05-23T00:23:40.802Z,11.00
2019-05-23T00:28:39.336Z,9.98
2019-05-23T00:33:47.733Z,9.38
2019-05-23T00:36:17.586Z,10.88
2019-05-23T00:38:46.137Z,10.10
2019-05-23T00:41:14.554Z,11.73
2019-05-23T00:43:43.342Z,9.90
2019-05-23T00:46:11.993Z,12.57
2019-05-23T00:48:40.424Z,15.35
2019-05-23T00:51:09.817Z,11.50
2019-05-23T00:53:38.888Z,13.05
2019-05-23T00:56:09.592Z,11.50
2019-05-23T00:58:39.169Z,12.25
2019-05-23T01:01:09.001Z,15.98
2019-05-23T01:06:06.875Z,11.43
2019-05-23T01:08:35.193Z,15.08
2019-05-23T01:11:04.958Z,13.90
2019-05-23T01:13:32.919Z,13.00
2019-05-23T01:16:01.272Z,11.35
2019-05-23T01:18:29.500Z,15.43
2019-05-23T01:23:59.870Z,12.50
2019-05-23T01:28:58.428Z,13.60
2019-05-23T01:31:31.273Z,11.12
2019-05-23T01:34:00.570Z,9.83
2019-05-23T01:36:29.969Z,11.65
2019-05-23T01:38:57.934Z,9.88
2019-05-23T01:41:26.491Z,12.68
2019-05-23T01:43:55.330Z,9.73
2019-05-23T01:48:52.466Z,13.60
2019-05-23T01:51:22.601Z,10.95
2019-05-23T01:53:50.970Z,12.85
2019-05-23T01:56:19.052Z,11.63
2019-05-23T02:01:15.780Z,13.90
2019-05-23T02:03:44.909Z,9.63
2019-05-23T02:06:14.067Z,14.53
2019-05-23T02:08:42.461Z,10.65
2019-05-23T02:11:10.802Z,11.78
2019-05-23T02:13:38.990Z,11.28
2019-05-23T02:16:07.213Z,10.65
2019-05-23T02:21:04.337Z,11.38
2019-05-23T02:23:32.662Z,9.00
2019-05-23T02:26:01.736Z,9.88
2019-05-23T02:28:31.340Z,10.20
2019-05-23T02:30:59.592Z,11.00
2019-05-23T02:33:27.834Z,10.50
2019-05-23T02:35:56.511Z,12.73
2019-05-23T02:38:53.810Z,10.93
2019-05-23T02:41:37.225Z,9.85
2019-05-23T02:44:10.348Z,8.40
2019-05-23T02:46:56.057Z,9.08
2019-05-23T02:49:26.383Z,10.75
2019-05-23T02:54:27.006Z,11.83
2019-05-23T02:56:57.838Z,10.60
2019-05-23T02:59:52.933Z,11.35
2019-05-23T03:02:50.684Z,10.08
2019-05-23T03:07:52.735Z,11.95
2019-05-23T03:10:21.026Z,11.93
2019-05-23T03:12:51.677Z,12.95
2019-05-23T03:15:21.597Z,11.50
2019-05-23T03:20:21.375Z,11.70
2019-05-23T03:22:53.429Z,12.63
2019-05-23T03:25:46.443Z,12.00
2019-05-23T03:30:45.397Z,15.28
2019-05-23T03:33:15.025Z,14.05
2019-05-23T03:35:46.250Z,11.70
2019-05-23T03:38:14.974Z,11.45
2019-05-23T03:40:44.729Z,11.75
2019-05-23T03:45:46.767Z,13.40
2019-05-23T03:48:15.462Z,14.68
2019-05-23T03:50:44.646Z,11.07
2019-05-23T03:53:12.998Z,12.97
2019-05-23T03:58:12.035Z,9.53
2019-05-23T04:03:15.253Z,12.27
2019-05-23T04:05:43.687Z,9.73
2019-05-23T04:10:41.133Z,14.50
2019-05-23T04:13:09.520Z,13.38
2019-05-23T04:15:37.955Z,9.30
2019-05-23T04:18:06.345Z,10.28
2019-05-23T04:23:04.141Z,14.15
2019-05-23T04:25:33.019Z,9.30
2019-05-23T04:28:01.366Z,9.60
2019-05-23T04:30:29.352Z,7.55
2019-05-23T04:32:57.943Z,15.70
2019-05-23T04:35:26.663Z,13.55
2019-05-23T04:37:54.805Z,11.65
2019-05-23T04:40:23.523Z,12.30
2019-05-23T04:42:51.728Z,13.60
2019-05-23T04:45:20.226Z,13.28
2019-05-23T04:47:48.842Z,13.48
2019-05-23T04:50:17.025Z,16.67
2019-05-23T04:52:44.978Z,14.28
2019-05-23T04:57:43.990Z,13.40
2019-05-23T05:00:14.900Z,13.27
2019-05-23T05:02:43.772Z,15.10
2019-05-23T05:05:12.213Z,13.60
2019-05-23T05:07:41.107Z,21.70
2019-05-23T05:10:09.876Z,17.85
2019-05-23T05:12:38.339Z,14.55
2019-05-23T05:17:35.135Z,18.35
2019-05-23T05:20:03.239Z,16.55
2019-05-23T05:22:31.986Z,17.37
2019-05-23T05:24:59.974Z,18.30
2019-05-23T05:29:56.446Z,18.02
2019-05-23T05:32:24.723Z,20.17
2019-05-23T05:37:21.188Z,20.72
2019-05-23T05:39:50.300Z,19.73
2019-05-23T05:44:46.890Z,22.85
2019-05-23T05:47:15.888Z,22.62
2019-05-23T05:49:43.882Z,23.00
2019-05-23T05:52:12.662Z,20.97
2019-05-23T05:57:09.697Z,20.05
2019-05-23T05:59:38.001Z,23.80
2019-05-23T06:02:11.173Z,22.07
2019-05-23T06:04:39.974Z,24.67
2019-05-23T06:07:32.191Z,21.82
2019-05-23T06:10:00.964Z,22.53
2019-05-23T06:12:29.158Z,21.30
2019-05-23T06:14:57.163Z,19.95
2019-05-23T06:17:25.717Z,17.73
2019-05-23T06:22:22.298Z,20.07
2019-05-23T06:24:54.603Z,19.73
2019-05-23T06:27:22.507Z,18.50
2019-05-23T06:29:51.104Z,18.17
2019-05-23T06:34:50.085Z,17.98
2019-05-23T06:37:18.361Z,19.35
2019-05-23T06:42:15.136Z,17.15
2019-05-23T06:44:43.739Z,18.65
2019-05-23T06:47:12.470Z,19.60
2019-05-23T06:49:40.429Z,18.15
2019-05-23T06:52:08.650Z,18.70
2019-05-23T06:54:36.964Z,18.20
2019-05-23T06:57:04.934Z,15.05
2019-05-23T06:59:38.162Z,15.08
2019-05-23T07:02:06.320Z,16.35
2019-05-23T07:04:34.491Z,13.22
2019-05-23T07:07:04.793Z,14.05
2019-05-23T07:09:33.534Z,12.07
2019-05-23T07:12:01.962Z,11.68
2019-05-23T07:14:31.206Z,15.25
2019-05-23T07:16:59.685Z,10.25
2019-05-23T07:21:56.898Z,11.78
2019-05-23T07:24:26.484Z,7.95
2019-05-23T07:26:55.045Z,8.70
2019-05-23T07:29:23.888Z,9.53
2019-05-23T07:31:52.478Z,7.33
2019-05-23T07:34:21.481Z,9.08
2019-05-23T07:36:49.903Z,8.03
2019-05-23T07:41:47.112Z,9.83
2019-05-23T07:44:16.505Z,7.33
2019-05-23T07:46:45.429Z,7.97
2019-05-23T07:49:13.898Z,7.92
2019-05-23T07:51:42.033Z,8.08
2019-05-23T07:54:24.640Z,7.90
2019-05-23T07:56:53.434Z,9.40
2019-05-23T07:59:22.573Z,9.50
2019-05-23T08:01:55.732Z,7.27
2019-05-23T08:04:24.214Z,9.43
2019-05-23T08:06:52.802Z,9.25
2019-05-23T08:09:23.397Z,9.73
2019-05-23T08:14:20.645Z,11.85
2019-05-23T08:16:49.450Z,9.93
2019-05-23T08:19:19.689Z,10.20
2019-05-23T08:21:48.660Z,18.27
2019-05-23T08:26:46.435Z,9.15
2019-05-23T08:29:25.899Z,9.65
2019-05-23T08:31:44.966Z,10.67
2019-05-23T08:34:13.501Z,11.17
2019-05-23T08:36:41.732Z,12.30
2019-05-23T08:39:10.594Z,10.50
2019-05-23T08:41:39.918Z,10.10
2019-05-23T08:46:36.770Z,9.40
2019-05-23T08:49:06.115Z,9.78
2019-05-23T08:51:35.185Z,9.55
2019-05-23T08:54:03.612Z,11.22
2019-05-23T08:56:32.337Z,8.93
2019-05-23T08:59:01.463Z,8.80
2019-05-23T09:01:30.517Z,10.35
2019-05-23T09:06:28.712Z,8.78
2019-05-23T09:08:57.196Z,8.65
2019-05-23T09:11:26.038Z,10.07
2019-05-23T09:13:55.243Z,9.58
2019-05-23T09:16:23.319Z,8.73
2019-05-23T09:18:51.799Z,9.35
2019-05-23T09:21:20.782Z,9.63
2019-05-23T09:23:49.230Z,10.45
2019-05-23T09:26:17.804Z,12.00
2019-05-23T09:28:45.933Z,10.45
2019-05-23T09:31:14.632Z,8.45
2019-05-23T09:36:11.949Z,11.95
2019-05-23T09:38:40.507Z,8.25
2019-05-23T09:41:09.232Z,8.08
2019-05-23T09:43:37.604Z,7.75
2019-05-23T09:46:05.884Z,8.70
2019-05-23T09:48:34.505Z,8.48
2019-05-23T09:51:02.989Z,8.55
2019-05-23T09:55:59.686Z,6.95
2019-05-23T09:58:28.004Z,6.28
2019-05-23T10:00:56.248Z,8.45
2019-05-23T10:03:24.985Z,6.37
2019-05-23T10:05:53.470Z,7.83
2019-05-23T10:08:21.965Z,6.25
2019-05-23T10:10:50.949Z,6.28
2019-05-23T10:16:06.030Z,7.20
2019-05-23T10:21:03.154Z,8.00
2019-05-23T10:23:31.974Z,5.75
2019-05-23T10:26:00.063Z,10.08
2019-05-23T10:28:28.561Z,9.30
2019-05-23T10:30:56.606Z,8.63
2019-05-23T10:33:24.849Z,8.68
2019-05-23T10:36:00.231Z,8.28
2019-05-23T10:38:23.745Z,6.33
2019-05-23T10:40:52.942Z,7.00
2019-05-23T10:43:21.431Z,7.67
2019-05-23T10:48:19.022Z,9.50
2019-05-23T10:50:47.966Z,5.08
2019-05-23T10:53:17.126Z,7.58
2019-05-23T10:55:45.726Z,6.73
2019-05-23T10:58:15.790Z,6.40
2019-05-23T11:00:45.844Z,9.80
2019-05-23T11:03:14.995Z,5.53
2019-05-23T11:08:12.863Z,7.90
2019-05-23T11:10:41.890Z,7.90
2019-05-23T11:13:10.066Z,5.95
2019-05-23T11:15:39.111Z,4.37
2019-05-23T11:18:08.421Z,6.20
2019-05-23T11:20:37.259Z,9.25
2019-05-23T11:23:06.250Z,7.45
2019-05-23T11:28:03.502Z,7.03
2019-05-23T11:30:37.541Z,4.97
2019-05-23T11:33:07.639Z,6.40
2019-05-23T11:35:36.546Z,8.45
2019-05-23T11:38:04.825Z,8.50
2019-05-23T11:40:33.909Z,7.37
2019-05-23T11:43:02.242Z,6.62
2019-05-23T11:45:33.229Z,7.62
2019-05-23T11:48:02.118Z,9.05
2019-05-23T11:50:30.381Z,6.72
2019-05-23T11:52:59.057Z,5.72
2019-05-23T11:55:28.010Z,9.13
2019-05-23T11:57:57.910Z,8.40
2019-05-23T12:00:51.996Z,4.90
2019-05-23T12:03:21.245Z,5.78
2019-05-23T12:05:50.476Z,7.10
2019-05-23T12:08:18.561Z,5.10
2019-05-23T12:10:47.788Z,4.80
2019-05-23T12:15:46.251Z,4.15
2019-05-23T12:18:14.464Z,7.12
2019-05-23T12:20:42.918Z,6.70
2019-05-23T12:23:11.392Z,4.90
2019-05-23T12:25:39.765Z,3.08
2019-05-23T12:28:09.068Z,5.22
2019-05-23T12:30:37.212Z,7.58
2019-05-23T12:33:05.716Z,4.60
2019-05-23T12:35:35.239Z,4.87
2019-05-23T12:38:03.326Z,6.33
2019-05-23T12:43:01.653Z,5.03
2019-05-23T12:45:30.241Z,4.25
2019-05-23T12:48:03.080Z,6.03
2019-05-23T12:50:36.441Z,4.77
2019-05-23T12:55:33.311Z,7.45
2019-05-23T12:58:01.490Z,7.55
2019-05-23T13:00:49.241Z,5.45
2019-05-23T13:03:18.732Z,6.33
2019-05-23T13:05:48.228Z,3.92
2019-05-23T13:08:16.589Z,9.03
2019-05-23T13:10:45.512Z,7.20
2019-05-23T13:13:13.637Z,6.53
2019-05-23T13:15:43.206Z,5.83
2019-05-23T13:20:40.449Z,5.07
2019-05-23T13:23:19.249Z,4.70
2019-05-23T13:25:40.832Z,5.00
2019-05-23T13:30:38.211Z,8.07
2019-05-23T13:33:06.583Z,5.50
2019-05-23T13:35:35.468Z,8.60
2019-05-23T13:38:04.560Z,6.20
2019-05-23T13:40:35.289Z,5.20
2019-05-23T13:43:07.707Z,7.20
2019-05-23T13:45:34.752Z,6.22
2019-05-23T13:50:32.619Z,6.45
2019-05-23T13:53:01.392Z,8.13
2019-05-23T13:55:29.545Z,4.92
2019-05-23T13:57:58.929Z,6.17
2019-05-23T14:00:29.173Z,8.13
2019-05-23T14:02:58.117Z,4.70
2019-05-23T14:05:26.776Z,6.12
2019-05-23T14:08:10.563Z,8.17
2019-05-23T14:12:54.098Z,6.00
2019-05-23T14:15:24.644Z,4.20
2019-05-23T14:17:53.395Z,5.95
2019-05-23T14:20:23.500Z,5.07
2019-05-23T14:25:29.966Z,5.90
2019-05-23T14:28:03.107Z,5.28
2019-05-23T14:30:53.238Z,6.58
2019-05-23T14:36:01.360Z,6.50
2019-05-23T14:38:31.652Z,6.17
2019-05-23T14:41:00.454Z,8.20
2019-05-23T14:43:28.719Z,5.03
2019-05-23T14:48:50.410Z,5.22
2019-05-23T14:54:01.906Z,4.87
2019-05-23T14:56:31.348Z,5.17
2019-05-23T14:58:59.924Z,6.75
2019-05-23T15:01:30.268Z,6.50
2019-05-23T15:06:26.877Z,4.17
2019-05-23T15:08:55.547Z,4.87
2019-05-23T15:11:25.744Z,6.17
2019-05-23T15:13:54.354Z,6.75
2019-05-23T15:16:22.850Z,4.53
2019-05-23T15:18:51.184Z,5.70
2019-05-23T15:21:19.474Z,3.90
2019-05-23T15:23:47.632Z,6.42
2019-05-23T15:26:22.855Z,5.17
2019-05-23T15:28:45.982Z,4.17
2019-05-23T15:31:14.111Z,5.37
2019-05-23T15:33:42.379Z,4.70
2019-05-23T15:36:10.866Z,5.87
2019-05-23T15:38:38.957Z,4.72
2019-05-23T15:41:07.811Z,8.40
2019-05-23T15:43:36.166Z,4.10
2019-05-23T15:46:04.447Z,4.00
2019-05-23T15:48:32.838Z,4.40
2019-05-23T15:51:01.751Z,14.30
2019-05-23T15:53:49.452Z,7.03
2019-05-23T15:56:40.154Z,6.97
2019-05-23T15:59:25.254Z,8.55
2019-05-23T16:02:11.414Z,5.92
2019-05-23T16:04:41.384Z,5.50
2019-05-23T16:07:10.664Z,5.80
2019-05-23T16:09:39.244Z,5.42
2019-05-23T16:12:08.294Z,6.92
2019-05-23T16:14:37.689Z,6.00
2019-05-23T16:17:07.585Z,4.85
2019-05-23T16:22:05.781Z,6.00
2019-05-23T16:24:33.845Z,5.05
2019-05-23T16:27:12.496Z,9.68
2019-05-23T16:29:41.509Z,4.30
2019-05-23T16:32:21.646Z,5.08
2019-05-23T16:34:52.302Z,5.83
2019-05-23T16:37:20.759Z,5.97
2019-05-23T16:39:50.184Z,5.55
2019-05-23T16:42:19.842Z,5.80
2019-05-23T16:44:48.929Z,4.83
2019-05-23T16:49:45.455Z,5.25
2019-05-23T16:52:13.932Z,6.12
2019-05-23T16:54:45.108Z,6.67
2019-05-23T16:57:29.318Z,5.33
2019-05-23T17:00:02.922Z,4.33
2019-05-23T17:02:40.318Z,5.83
2019-05-23T17:05:25.655Z,7.85
2019-05-23T17:08:11.169Z,4.53
2019-05-23T17:11:04.507Z,3.97
2019-05-23T17:13:42.783Z,3.50
2019-05-23T17:16:25.918Z,4.42
2019-05-23T17:19:18.243Z,9.00
2019-05-23T17:21:58.523Z,5.15
2019-05-23T17:27:36.447Z,4.00
2019-05-23T17:30:14.393Z,4.03
2019-05-23T17:32:43.141Z,5.20
2019-05-23T17:35:11.761Z,4.72
2019-05-23T17:37:39.881Z,3.60
2019-05-23T17:40:23.715Z,3.72
2019-05-23T17:45:08.153Z,3.83
2019-05-23T17:47:38.303Z,4.30
2019-05-23T17:50:06.922Z,5.80
2019-05-23T17:52:35.625Z,6.65
2019-05-23T17:57:32.362Z,4.50
2019-05-23T18:00:00.678Z,3.50
2019-05-23T18:02:28.944Z,5.37
2019-05-23T18:04:57.675Z,5.03
2019-05-23T18:07:26.305Z,3.67
2019-05-23T18:09:55.459Z,4.20
2019-05-23T18:12:23.580Z,3.87
2019-05-23T18:14:52.393Z,5.78
2019-05-23T18:17:21.233Z,4.97
2019-05-23T18:19:50.324Z,3.87
2019-05-23T18:24:47.253Z,7.45
2019-05-23T18:27:16.014Z,3.50
2019-05-23T18:29:44.593Z,5.85
2019-05-23T18:32:18.074Z,5.30
2019-05-23T18:37:15.264Z,4.22
2019-05-23T18:39:44.063Z,6.93
2019-05-23T18:44:43.125Z,4.75
2019-05-23T18:47:17.422Z,3.83
2019-05-23T18:49:45.753Z,7.37
2019-05-23T18:52:14.355Z,5.40
2019-05-23T18:57:13.071Z,4.10
2019-05-23T18:59:41.366Z,4.58
2019-05-23T19:02:09.586Z,4.33
2019-05-23T19:04:37.688Z,4.25
2019-05-23T19:07:06.342Z,4.45
2019-05-23T19:09:34.696Z,3.17
2019-05-23T19:12:02.972Z,7.60
2019-05-23T19:16:59.537Z,5.30
2019-05-23T19:19:27.913Z,5.50
2019-05-23T19:21:56.327Z,5.00
2019-05-23T19:24:25.084Z,4.05
2019-05-23T19:26:53.111Z,8.00
2019-05-23T19:29:22.165Z,4.78
2019-05-23T19:31:50.421Z,4.30
2019-05-23T19:36:47.797Z,5.60
2019-05-23T19:39:17.354Z,4.85
2019-05-23T19:41:45.840Z,6.78
2019-05-23T19:44:14.371Z,6.20
2019-05-23T19:46:44.629Z,5.90
2019-05-23T19:49:14.249Z,11.05
2019-05-23T19:51:42.643Z,7.03
2019-05-23T19:54:11.271Z,5.20
2019-05-23T19:56:40.704Z,5.40
2019-05-23T19:59:09.110Z,6.45
2019-05-23T20:01:47.664Z,4.50
2019-05-23T20:04:16.216Z,4.40
2019-05-23T20:06:44.350Z,6.53
2019-05-23T20:09:16.125Z,5.12
2019-05-23T20:11:53.752Z,4.05
2019-05-23T20:14:15.364Z,7.17
2019-05-23T20:16:43.794Z,5.40
2019-05-23T20:19:12.016Z,4.50
2019-05-23T20:21:40.297Z,7.20
2019-05-23T20:24:08.313Z,4.78
2019-05-23T20:29:04.901Z,6.78
2019-05-23T20:31:34.891Z,4.80
2019-05-23T20:34:06.949Z,6.28
2019-05-23T20:36:34.840Z,5.15
2019-05-23T20:39:03.665Z,6.45
2019-05-23T20:41:31.918Z,5.78
2019-05-23T20:44:00.795Z,6.60
2019-05-23T20:48:57.447Z,9.85
2019-05-23T20:51:26.877Z,5.17
2019-05-23T20:53:55.004Z,7.78
2019-05-23T20:56:23.885Z,6.12
2019-05-23T20:58:52.006Z,10.30
2019-05-23T21:01:32.844Z,5.33
2019-05-23T21:04:01.316Z,7.43
2019-05-23T21:06:29.415Z,6.80
2019-05-23T21:08:58.004Z,6.00
2019-05-23T21:13:54.724Z,5.45
2019-05-23T21:16:23.634Z,5.12
2019-05-23T21:21:20.593Z,4.67
2019-05-23T21:23:49.190Z,6.72
2019-05-23T21:28:47.402Z,5.67
2019-05-23T21:31:19.516Z,8.58
2019-05-23T21:33:50.418Z,5.42
2019-05-23T21:36:20.005Z,7.50
2019-05-23T21:41:18.567Z,4.60
2019-05-23T21:43:49.709Z,6.25
2019-05-23T21:48:48.246Z,5.50
2019-05-23T21:51:16.740Z,6.30
2019-05-23T21:56:15.428Z,6.65
2019-05-23T21:58:44.535Z,6.62
2019-05-23T22:01:33.039Z,6.20
2019-05-23T22:06:56.970Z,6.40
2019-05-23T22:09:25.621Z,6.42
2019-05-23T22:11:55.440Z,7.92
2019-05-23T22:14:24.344Z,6.25
2019-05-23T22:16:52.784Z,7.65
2019-05-23T22:19:23.800Z,7.47
2019-05-23T22:21:52.556Z,6.42
2019-05-23T22:24:21.155Z,7.15
2019-05-23T22:26:49.501Z,6.20
2019-05-23T22:31:46.226Z,7.20
2019-05-23T22:34:42.191Z,7.30
2019-05-23T22:37:25.065Z,6.47
2019-05-23T22:42:31.447Z,6.90
2019-05-23T22:45:09.433Z,5.80
2019-05-23T22:47:51.362Z,7.40
2019-05-23T22:50:27.853Z,6.35
2019-05-23T22:52:57.689Z,5.40
2019-05-23T22:55:26.618Z,9.93
2019-05-23T22:57:57.469Z,5.28
2019-05-23T23:00:36.920Z,6.20
2019-05-23T23:03:18.776Z,8.50
2019-05-23T23:06:02.415Z,7.30
2019-05-23T23:08:39.193Z,8.05
2019-05-23T23:13:42.222Z,5.85
2019-05-23T23:16:12.095Z,5.53
2019-05-23T23:18:41.564Z,5.28
2019-05-23T23:21:10.728Z,7.10
2019-05-23T23:23:40.197Z,5.85
2019-05-23T23:26:11.165Z,5.10
2019-05-23T23:28:40.810Z,7.20
2019-05-23T23:31:09.748Z,4.85
2019-05-23T23:33:39.843Z,5.15
2019-05-23T23:36:11.630Z,7.40
2019-05-23T23:38:50.468Z,8.33
2019-05-23T23:41:33.865Z,6.35
2019-05-23T23:44:22.662Z,4.87
2019-05-23T23:47:19.968Z,5.33
2019-05-23T23:50:18.339Z,6.30
2019-05-23T23:53:11.748Z,7.27
2019-05-23T23:56:08.115Z,6.75
2019-05-23T23:58:48.612Z,7.08
